sensor_id;sensor_type;location;lat;lon;timestamp;temperature;humidity
18868;DHT22;9563;49.240;9.088;2023-01-05T00:01:29;11.00;99.90
18868;DHT22;9563;49.240;9.088;2023-01-05T00:03:56;11.00;99.90
18868;DHT22;9563;49.240;9.088;2023-01-05T00:06:23;11.00;99.90
18868;DHT22;9563;49.240;9.088;2023-01-05T00:08:50;10.90;99.90
18868;DHT22;9563;49.240;9.088;2023-01-05T00:11:19;10.90;99.90
18868;DHT22;9563;49.240;9.088;2023-01-05T00:14:04;10.80;99.90
18868;DHT22;9563;49.240;9.088;2023-01-05T00:16:50;10.80;99.90
18868;DHT22;9563;49.240;9.088;2023-01-05T00:19:34;10.80;99.90
18868;DHT22;9563;49.240;9.088;2023-01-05T00:22:21;10.80;99.90
18868;DHT22;9563;49.240;9.088;2023-01-05T00:24:57;10.80;99.90
18868;DHT22;9563;49.240;9.088;2023-01-05T00:27:24;10.80;99.90
18868;DHT22;9563;49.240;9.088;2023-01-05T00:29:51;10.80;99.90
18868;DHT22;9563;49.240;9.088;2023-01-05T00:32:20;10.80;99.90
18868;DHT22;9563;49.240;9.088;2023-01-05T00:34:47;10.80;99.90
18868;DHT22;9563;49.240;9.088;2023-01-05T00:37:15;10.80;99.90
18868;DHT22;9563;49.240;9.088;2023-01-05T00:39:42;10.80;99.90
18868;DHT22;9563;49.240;9.088;2023-01-05T00:42:09;10.80;99.90
18868;DHT22;9563;49.240;9.088;2023-01-05T00:44:36;10.70;99.90
18868;DHT22;9563;49.240;9.088;2023-01-05T00:47:03;10.70;99.90
18868;DHT22;9563;49.240;9.088;2023-01-05T00:49:31;10.70;99.90
18868;DHT22;9563;49.240;9.088;2023-01-05T00:51:58;10.70;99.90
18868;DHT22;9563;49.240;9.088;2023-01-05T00:54:25;10.80;99.90
18868;DHT22;9563;49.240;9.088;2023-01-05T00:56:52;10.80;99.90
18868;DHT22;9563;49.240;9.088;2023-01-05T00:59:19;10.80;99.90
18868;DHT22;9563;49.240;9.088;2023-01-05T01:01:46;10.80;99.90
18868;DHT22;9563;49.240;9.088;2023-01-05T01:04:14;10.70;99.90
18868;DHT22;9563;49.240;9.088;2023-01-05T01:06:42;10.70;99.90
18868;DHT22;9563;49.240;9.088;2023-01-05T01:09:10;10.70;99.90
18868;DHT22;9563;49.240;9.088;2023-01-05T01:11:37;10.80;99.90
18868;DHT22;9563;49.240;9.088;2023-01-05T01:14:05;10.80;99.90
18868;DHT22;9563;49.240;9.088;2023-01-05T01:16:33;10.80;99.90
18868;DHT22;9563;49.240;9.088;2023-01-05T01:19:00;10.80;99.90
18868;DHT22;9563;49.240;9.088;2023-01-05T01:21:27;10.80;99.90
18868;DHT22;9563;49.240;9.088;2023-01-05T01:23:55;10.80;99.90
18868;DHT22;9563;49.240;9.088;2023-01-05T01:26:22;10.80;99.90
18868;DHT22;9563;49.240;9.088;2023-01-05T01:28:49;10.80;99.90
18868;DHT22;9563;49.240;9.088;2023-01-05T01:31:16;10.80;99.90
18868;DHT22;9563;49.240;9.088;2023-01-05T01:33:42;10.80;99.90
18868;DHT22;9563;49.240;9.088;2023-01-05T01:36:10;10.80;99.90
18868;DHT22;9563;49.240;9.088;2023-01-05T01:38:37;10.80;99.90
18868;DHT22;9563;49.240;9.088;2023-01-05T01:41:05;10.80;99.90
18868;DHT22;9563;49.240;9.088;2023-01-05T01:43:46;10.80;99.90
18868;DHT22;9563;49.240;9.088;2023-01-05T01:46:14;10.80;99.90
18868;DHT22;9563;49.240;9.088;2023-01-05T01:48:44;10.80;99.90
18868;DHT22;9563;49.240;9.088;2023-01-05T01:51:14;10.70;99.90
18868;DHT22;9563;49.240;9.088;2023-01-05T01:53:44;10.80;99.90
18868;DHT22;9563;49.240;9.088;2023-01-05T01:56:16;10.80;99.90
18868;DHT22;9563;49.240;9.088;2023-01-05T01:58:44;10.80;99.90
18868;DHT22;9563;49.240;9.088;2023-01-05T02:01:11;10.80;99.90
18868;DHT22;9563;49.240;9.088;2023-01-05T02:03:39;10.80;99.90
18868;DHT22;9563;49.240;9.088;2023-01-05T02:06:06;10.80;99.90
18868;DHT22;9563;49.240;9.088;2023-01-05T02:08:33;10.70;99.90
18868;DHT22;9563;49.240;9.088;2023-01-05T02:14:14;10.80;99.90
18868;DHT22;9563;49.240;9.088;2023-01-05T02:16:51;10.80;99.90
18868;DHT22;9563;49.240;9.088;2023-01-05T02:25:46;10.70;99.90
18868;DHT22;9563;49.240;9.088;2023-01-05T02:28:31;10.70;99.90
18868;DHT22;9563;49.240;9.088;2023-01-05T02:31:12;10.70;99.90
18868;DHT22;9563;49.240;9.088;2023-01-05T02:33:57;10.70;99.90
18868;DHT22;9563;49.240;9.088;2023-01-05T02:36:29;10.60;99.90
18868;DHT22;9563;49.240;9.088;2023-01-05T02:39:00;10.60;99.90
18868;DHT22;9563;49.240;9.088;2023-01-05T02:41:32;10.50;99.90
18868;DHT22;9563;49.240;9.088;2023-01-05T02:44:01;10.50;99.90
18868;DHT22;9563;49.240;9.088;2023-01-05T02:46:29;10.40;99.90
18868;DHT22;9563;49.240;9.088;2023-01-05T02:48:58;10.50;99.90
18868;DHT22;9563;49.240;9.088;2023-01-05T02:51:30;10.50;99.90
18868;DHT22;9563;49.240;9.088;2023-01-05T02:54:00;10.40;99.90
18868;DHT22;9563;49.240;9.088;2023-01-05T02:56:33;10.50;99.90
18868;DHT22;9563;49.240;9.088;2023-01-05T02:59:04;10.50;99.90
18868;DHT22;9563;49.240;9.088;2023-01-05T03:01:36;10.50;99.90
18868;DHT22;9563;49.240;9.088;2023-01-05T03:04:08;10.50;99.90
18868;DHT22;9563;49.240;9.088;2023-01-05T03:06:40;10.60;99.90
18868;DHT22;9563;49.240;9.088;2023-01-05T03:09:13;10.60;99.90
18868;DHT22;9563;49.240;9.088;2023-01-05T03:11:46;10.60;99.90
18868;DHT22;9563;49.240;9.088;2023-01-05T03:14:36;10.60;99.90
18868;DHT22;9563;49.240;9.088;2023-01-05T03:17:07;10.70;99.90
18868;DHT22;9563;49.240;9.088;2023-01-05T03:19:36;10.70;99.90
18868;DHT22;9563;49.240;9.088;2023-01-05T03:22:11;10.70;99.90
18868;DHT22;9563;49.240;9.088;2023-01-05T03:24:57;10.70;99.90
18868;DHT22;9563;49.240;9.088;2023-01-05T03:27:42;10.70;99.90
18868;DHT22;9563;49.240;9.088;2023-01-05T03:30:33;10.70;99.90
18868;DHT22;9563;49.240;9.088;2023-01-05T03:33:26;10.70;99.90
18868;DHT22;9563;49.240;9.088;2023-01-05T03:36:16;10.80;99.90
18868;DHT22;9563;49.240;9.088;2023-01-05T03:38:44;10.80;99.90
18868;DHT22;9563;49.240;9.088;2023-01-05T03:41:14;10.80;99.90
18868;DHT22;9563;49.240;9.088;2023-01-05T03:43:42;10.80;99.90
18868;DHT22;9563;49.240;9.088;2023-01-05T03:46:10;10.80;99.90
18868;DHT22;9563;49.240;9.088;2023-01-05T03:48:41;10.80;99.90
18868;DHT22;9563;49.240;9.088;2023-01-05T03:51:08;10.80;99.90
18868;DHT22;9563;49.240;9.088;2023-01-05T03:53:34;10.70;99.90
18868;DHT22;9563;49.240;9.088;2023-01-05T03:56:01;10.70;99.90
18868;DHT22;9563;49.240;9.088;2023-01-05T03:58:28;10.80;99.90
18868;DHT22;9563;49.240;9.088;2023-01-05T04:00:55;10.80;99.90
18868;DHT22;9563;49.240;9.088;2023-01-05T04:03:22;10.80;99.90
18868;DHT22;9563;49.240;9.088;2023-01-05T04:05:50;10.80;99.90
18868;DHT22;9563;49.240;9.088;2023-01-05T04:08:17;10.80;99.90
18868;DHT22;9563;49.240;9.088;2023-01-05T04:10:44;10.80;99.90
18868;DHT22;9563;49.240;9.088;2023-01-05T04:13:11;10.70;99.90
18868;DHT22;9563;49.240;9.088;2023-01-05T04:15:39;10.70;99.90
18868;DHT22;9563;49.240;9.088;2023-01-05T04:18:06;10.70;99.90
18868;DHT22;9563;49.240;9.088;2023-01-05T04:20:33;10.70;99.90
18868;DHT22;9563;49.240;9.088;2023-01-05T04:23:01;10.70;99.90
18868;DHT22;9563;49.240;9.088;2023-01-05T04:25:28;10.70;99.90
18868;DHT22;9563;49.240;9.088;2023-01-05T04:27:55;10.80;99.90
18868;DHT22;9563;49.240;9.088;2023-01-05T04:30:22;10.80;99.90
18868;DHT22;9563;49.240;9.088;2023-01-05T04:32:49;10.70;99.90
18868;DHT22;9563;49.240;9.088;2023-01-05T04:35:16;10.70;99.90
18868;DHT22;9563;49.240;9.088;2023-01-05T04:37:43;10.70;99.90
18868;DHT22;9563;49.240;9.088;2023-01-05T04:40:13;10.70;99.90
18868;DHT22;9563;49.240;9.088;2023-01-05T04:42:40;10.70;99.90
18868;DHT22;9563;49.240;9.088;2023-01-05T04:45:08;10.70;99.90
18868;DHT22;9563;49.240;9.088;2023-01-05T04:47:35;10.70;99.90
18868;DHT22;9563;49.240;9.088;2023-01-05T04:50:02;10.60;99.90
18868;DHT22;9563;49.240;9.088;2023-01-05T04:52:29;10.60;99.90
18868;DHT22;9563;49.240;9.088;2023-01-05T04:54:56;10.60;99.90
18868;DHT22;9563;49.240;9.088;2023-01-05T04:57:24;10.60;99.90
18868;DHT22;9563;49.240;9.088;2023-01-05T04:59:51;10.70;99.90
18868;DHT22;9563;49.240;9.088;2023-01-05T05:02:18;10.70;99.90
18868;DHT22;9563;49.240;9.088;2023-01-05T05:04:45;10.70;99.90
18868;DHT22;9563;49.240;9.088;2023-01-05T05:07:12;10.60;99.90
18868;DHT22;9563;49.240;9.088;2023-01-05T05:09:39;10.60;99.90
18868;DHT22;9563;49.240;9.088;2023-01-05T05:12:06;10.70;99.90
18868;DHT22;9563;49.240;9.088;2023-01-05T05:14:35;10.70;99.90
18868;DHT22;9563;49.240;9.088;2023-01-05T05:17:02;10.70;99.90
18868;DHT22;9563;49.240;9.088;2023-01-05T05:19:29;10.70;99.90
18868;DHT22;9563;49.240;9.088;2023-01-05T05:21:56;10.70;99.90
18868;DHT22;9563;49.240;9.088;2023-01-05T05:24:22;10.70;99.90
18868;DHT22;9563;49.240;9.088;2023-01-05T05:26:49;10.70;99.90
18868;DHT22;9563;49.240;9.088;2023-01-05T05:29:16;10.80;99.90
18868;DHT22;9563;49.240;9.088;2023-01-05T05:31:44;10.80;99.90
18868;DHT22;9563;49.240;9.088;2023-01-05T05:34:11;10.80;99.90
18868;DHT22;9563;49.240;9.088;2023-01-05T05:36:38;10.80;99.90
18868;DHT22;9563;49.240;9.088;2023-01-05T05:39:05;10.80;99.90
18868;DHT22;9563;49.240;9.088;2023-01-05T05:41:32;10.80;99.90
18868;DHT22;9563;49.240;9.088;2023-01-05T05:43:59;10.70;99.90
18868;DHT22;9563;49.240;9.088;2023-01-05T05:46:27;10.70;99.90
18868;DHT22;9563;49.240;9.088;2023-01-05T05:48:57;10.60;99.90
18868;DHT22;9563;49.240;9.088;2023-01-05T05:51:25;10.60;99.90
18868;DHT22;9563;49.240;9.088;2023-01-05T05:53:52;10.60;99.90
18868;DHT22;9563;49.240;9.088;2023-01-05T05:56:20;10.60;99.90
18868;DHT22;9563;49.240;9.088;2023-01-05T05:58:47;10.60;99.90
18868;DHT22;9563;49.240;9.088;2023-01-05T06:01:14;10.60;99.90
18868;DHT22;9563;49.240;9.088;2023-01-05T06:03:41;10.60;99.90
18868;DHT22;9563;49.240;9.088;2023-01-05T06:06:09;10.60;99.90
18868;DHT22;9563;49.240;9.088;2023-01-05T06:08:36;10.60;99.90
18868;DHT22;9563;49.240;9.088;2023-01-05T06:11:03;10.60;99.90
18868;DHT22;9563;49.240;9.088;2023-01-05T06:13:30;10.60;99.90
18868;DHT22;9563;49.240;9.088;2023-01-05T06:15:57;10.60;99.90
18868;DHT22;9563;49.240;9.088;2023-01-05T06:18:24;10.60;99.90
18868;DHT22;9563;49.240;9.088;2023-01-05T06:20:53;10.60;99.90
18868;DHT22;9563;49.240;9.088;2023-01-05T06:23:21;10.60;99.90
18868;DHT22;9563;49.240;9.088;2023-01-05T06:25:48;10.60;99.90
18868;DHT22;9563;49.240;9.088;2023-01-05T06:28:15;10.70;99.90
18868;DHT22;9563;49.240;9.088;2023-01-05T06:30:42;10.60;99.90
18868;DHT22;9563;49.240;9.088;2023-01-05T06:33:09;10.70;99.90
18868;DHT22;9563;49.240;9.088;2023-01-05T06:35:37;10.70;99.90
18868;DHT22;9563;49.240;9.088;2023-01-05T06:38:04;10.70;99.90
18868;DHT22;9563;49.240;9.088;2023-01-05T06:40:32;10.70;99.90
18868;DHT22;9563;49.240;9.088;2023-01-05T06:42:59;10.70;99.90
18868;DHT22;9563;49.240;9.088;2023-01-05T06:45:26;10.70;99.90
18868;DHT22;9563;49.240;9.088;2023-01-05T06:47:53;10.70;99.90
18868;DHT22;9563;49.240;9.088;2023-01-05T06:50:21;10.70;99.90
18868;DHT22;9563;49.240;9.088;2023-01-05T06:52:48;10.70;99.90
18868;DHT22;9563;49.240;9.088;2023-01-05T06:55:15;10.70;99.90
18868;DHT22;9563;49.240;9.088;2023-01-05T06:57:44;10.70;99.90
18868;DHT22;9563;49.240;9.088;2023-01-05T07:00:12;10.70;99.90
18868;DHT22;9563;49.240;9.088;2023-01-05T07:02:39;10.70;99.90
18868;DHT22;9563;49.240;9.088;2023-01-05T07:05:07;10.70;99.90
18868;DHT22;9563;49.240;9.088;2023-01-05T07:07:34;10.70;99.90
18868;DHT22;9563;49.240;9.088;2023-01-05T07:10:01;10.60;99.90
18868;DHT22;9563;49.240;9.088;2023-01-05T07:12:28;10.70;99.90
18868;DHT22;9563;49.240;9.088;2023-01-05T07:14:57;10.60;99.90
18868;DHT22;9563;49.240;9.088;2023-01-05T07:17:23;10.60;99.90
18868;DHT22;9563;49.240;9.088;2023-01-05T07:19:51;10.60;99.90
18868;DHT22;9563;49.240;9.088;2023-01-05T07:22:17;10.60;99.90
18868;DHT22;9563;49.240;9.088;2023-01-05T07:24:44;10.60;99.90
18868;DHT22;9563;49.240;9.088;2023-01-05T07:27:11;10.70;99.90
18868;DHT22;9563;49.240;9.088;2023-01-05T07:29:38;10.70;99.90
18868;DHT22;9563;49.240;9.088;2023-01-05T07:32:07;10.60;99.90
18868;DHT22;9563;49.240;9.088;2023-01-05T07:34:34;10.80;99.90
18868;DHT22;9563;49.240;9.088;2023-01-05T07:37:02;10.80;99.90
18868;DHT22;9563;49.240;9.088;2023-01-05T07:39:28;10.80;99.90
18868;DHT22;9563;49.240;9.088;2023-01-05T07:41:55;10.80;99.90
18868;DHT22;9563;49.240;9.088;2023-01-05T07:44:22;10.80;99.90
18868;DHT22;9563;49.240;9.088;2023-01-05T07:46:49;10.70;99.90
18868;DHT22;9563;49.240;9.088;2023-01-05T07:49:17;10.70;99.90
18868;DHT22;9563;49.240;9.088;2023-01-05T07:51:44;10.60;99.90
18868;DHT22;9563;49.240;9.088;2023-01-05T07:54:11;10.60;99.90
18868;DHT22;9563;49.240;9.088;2023-01-05T07:56:38;10.60;99.90
18868;DHT22;9563;49.240;9.088;2023-01-05T07:59:05;10.60;99.90
18868;DHT22;9563;49.240;9.088;2023-01-05T08:01:32;10.60;99.90
18868;DHT22;9563;49.240;9.088;2023-01-05T08:03:59;10.60;99.90
18868;DHT22;9563;49.240;9.088;2023-01-05T08:06:27;10.60;99.90
18868;DHT22;9563;49.240;9.088;2023-01-05T08:08:55;10.50;99.90
18868;DHT22;9563;49.240;9.088;2023-01-05T08:11:42;10.50;99.90
18868;DHT22;9563;49.240;9.088;2023-01-05T08:14:09;10.50;99.90
18868;DHT22;9563;49.240;9.088;2023-01-05T08:16:36;10.50;99.90
18868;DHT22;9563;49.240;9.088;2023-01-05T08:19:03;10.60;99.90
18868;DHT22;9563;49.240;9.088;2023-01-05T08:21:31;10.60;99.90
18868;DHT22;9563;49.240;9.088;2023-01-05T08:23:59;10.60;99.90
18868;DHT22;9563;49.240;9.088;2023-01-05T08:26:26;10.60;99.90
18868;DHT22;9563;49.240;9.088;2023-01-05T08:28:52;10.60;99.90
18868;DHT22;9563;49.240;9.088;2023-01-05T08:31:22;10.80;99.90
18868;DHT22;9563;49.240;9.088;2023-01-05T08:33:49;10.70;99.90
18868;DHT22;9563;49.240;9.088;2023-01-05T08:36:18;10.70;99.90
18868;DHT22;9563;49.240;9.088;2023-01-05T08:38:49;10.70;99.90
18868;DHT22;9563;49.240;9.088;2023-01-05T08:41:18;10.70;99.90
18868;DHT22;9563;49.240;9.088;2023-01-05T08:43:48;10.70;99.90
18868;DHT22;9563;49.240;9.088;2023-01-05T08:46:15;10.70;99.90
18868;DHT22;9563;49.240;9.088;2023-01-05T08:48:42;10.70;99.90
18868;DHT22;9563;49.240;9.088;2023-01-05T08:51:09;10.70;99.90
18868;DHT22;9563;49.240;9.088;2023-01-05T08:53:36;10.70;99.90
18868;DHT22;9563;49.240;9.088;2023-01-05T08:56:05;10.70;99.90
18868;DHT22;9563;49.240;9.088;2023-01-05T08:58:35;10.70;99.90
18868;DHT22;9563;49.240;9.088;2023-01-05T09:01:07;10.70;99.90
18868;DHT22;9563;49.240;9.088;2023-01-05T09:03:35;10.70;99.90
18868;DHT22;9563;49.240;9.088;2023-01-05T09:06:03;10.70;99.90
18868;DHT22;9563;49.240;9.088;2023-01-05T09:08:31;10.70;99.90
18868;DHT22;9563;49.240;9.088;2023-01-05T09:11:06;10.70;99.90
18868;DHT22;9563;49.240;9.088;2023-01-05T09:13:34;10.80;99.90
18868;DHT22;9563;49.240;9.088;2023-01-05T09:16:05;10.80;99.90
18868;DHT22;9563;49.240;9.088;2023-01-05T09:18:32;10.80;99.90
18868;DHT22;9563;49.240;9.088;2023-01-05T09:20:59;10.80;99.90
18868;DHT22;9563;49.240;9.088;2023-01-05T09:23:26;10.80;99.90
18868;DHT22;9563;49.240;9.088;2023-01-05T09:25:53;10.80;99.90
18868;DHT22;9563;49.240;9.088;2023-01-05T09:28:21;10.80;99.90
18868;DHT22;9563;49.240;9.088;2023-01-05T09:30:48;10.80;99.90
18868;DHT22;9563;49.240;9.088;2023-01-05T09:33:15;10.80;99.90
18868;DHT22;9563;49.240;9.088;2023-01-05T09:35:42;10.90;99.90
18868;DHT22;9563;49.240;9.088;2023-01-05T09:38:09;10.90;99.90
18868;DHT22;9563;49.240;9.088;2023-01-05T09:40:40;10.90;99.90
18868;DHT22;9563;49.240;9.088;2023-01-05T09:43:13;10.90;99.90
18868;DHT22;9563;49.240;9.088;2023-01-05T09:45:44;10.90;99.90
18868;DHT22;9563;49.240;9.088;2023-01-05T09:48:13;11.00;99.90
18868;DHT22;9563;49.240;9.088;2023-01-05T09:50:42;11.00;99.90
18868;DHT22;9563;49.240;9.088;2023-01-05T09:53:11;11.00;99.90
18868;DHT22;9563;49.240;9.088;2023-01-05T09:55:40;11.00;99.90
18868;DHT22;9563;49.240;9.088;2023-01-05T09:58:13;11.10;99.90
18868;DHT22;9563;49.240;9.088;2023-01-05T10:00:49;11.10;99.90
18868;DHT22;9563;49.240;9.088;2023-01-05T10:03:23;11.20;99.90
18868;DHT22;9563;49.240;9.088;2023-01-05T10:05:51;11.20;99.90
18868;DHT22;9563;49.240;9.088;2023-01-05T10:08:26;11.20;99.90
18868;DHT22;9563;49.240;9.088;2023-01-05T10:10:58;11.30;99.90
18868;DHT22;9563;49.240;9.088;2023-01-05T10:13:54;11.40;99.90
18868;DHT22;9563;49.240;9.088;2023-01-05T10:16:23;11.50;99.90
18868;DHT22;9563;49.240;9.088;2023-01-05T10:18:50;11.60;99.90
18868;DHT22;9563;49.240;9.088;2023-01-05T10:21:25;11.50;99.90
18868;DHT22;9563;49.240;9.088;2023-01-05T10:26:48;11.50;99.90
18868;DHT22;9563;49.240;9.088;2023-01-05T10:29:21;11.50;99.90
18868;DHT22;9563;49.240;9.088;2023-01-05T10:31:55;11.50;99.90
18868;DHT22;9563;49.240;9.088;2023-01-05T10:34:37;11.50;99.90
18868;DHT22;9563;49.240;9.088;2023-01-05T10:37:27;11.40;99.90
18868;DHT22;9563;49.240;9.088;2023-01-05T10:40:10;11.30;99.90
18868;DHT22;9563;49.240;9.088;2023-01-05T10:42:48;11.40;99.90
18868;DHT22;9563;49.240;9.088;2023-01-05T10:45:18;11.50;99.90
18868;DHT22;9563;49.240;9.088;2023-01-05T10:47:48;11.90;99.90
18868;DHT22;9563;49.240;9.088;2023-01-05T10:50:30;12.50;99.90
18868;DHT22;9563;49.240;9.088;2023-01-05T10:53:01;12.90;99.90
18868;DHT22;9563;49.240;9.088;2023-01-05T10:55:44;13.10;99.90
18868;DHT22;9563;49.240;9.088;2023-01-05T10:58:24;13.20;99.90
18868;DHT22;9563;49.240;9.088;2023-01-05T11:00:54;13.40;99.90
18868;DHT22;9563;49.240;9.088;2023-01-05T11:03:28;13.60;99.90
18868;DHT22;9563;49.240;9.088;2023-01-05T11:05:59;13.50;99.90
18868;DHT22;9563;49.240;9.088;2023-01-05T11:08:27;13.00;99.90
18868;DHT22;9563;49.240;9.088;2023-01-05T11:10:56;12.80;99.90
18868;DHT22;9563;49.240;9.088;2023-01-05T11:13:29;12.50;99.90
18868;DHT22;9563;49.240;9.088;2023-01-05T11:16:00;12.30;99.90
18868;DHT22;9563;49.240;9.088;2023-01-05T11:18:33;12.20;99.90
18868;DHT22;9563;49.240;9.088;2023-01-05T11:21:10;11.90;99.90
18868;DHT22;9563;49.240;9.088;2023-01-05T11:23:39;11.70;99.90
18868;DHT22;9563;49.240;9.088;2023-01-05T11:26:27;11.60;99.90
18868;DHT22;9563;49.240;9.088;2023-01-05T11:29:04;11.50;99.90
18868;DHT22;9563;49.240;9.088;2023-01-05T11:31:38;11.40;99.90
18868;DHT22;9563;49.240;9.088;2023-01-05T11:34:30;11.40;99.90
18868;DHT22;9563;49.240;9.088;2023-01-05T11:37:01;11.40;99.90
18868;DHT22;9563;49.240;9.088;2023-01-05T11:39:29;11.50;99.90
18868;DHT22;9563;49.240;9.088;2023-01-05T11:42:14;11.60;99.90
18868;DHT22;9563;49.240;9.088;2023-01-05T11:44:44;11.70;99.90
18868;DHT22;9563;49.240;9.088;2023-01-05T11:47:21;11.50;99.90
18868;DHT22;9563;49.240;9.088;2023-01-05T11:49:57;11.40;99.90
18868;DHT22;9563;49.240;9.088;2023-01-05T11:52:27;11.30;99.90
18868;DHT22;9563;49.240;9.088;2023-01-05T11:54:57;11.20;99.90
18868;DHT22;9563;49.240;9.088;2023-01-05T11:57:24;11.10;99.90
18868;DHT22;9563;49.240;9.088;2023-01-05T11:59:52;11.10;99.90
18868;DHT22;9563;49.240;9.088;2023-01-05T12:02:44;11.00;99.90
18868;DHT22;9563;49.240;9.088;2023-01-05T12:05:23;11.00;99.90
18868;DHT22;9563;49.240;9.088;2023-01-05T12:07:55;11.00;99.90
18868;DHT22;9563;49.240;9.088;2023-01-05T12:10:46;11.00;99.90
18868;DHT22;9563;49.240;9.088;2023-01-05T12:16:11;11.10;99.90
18868;DHT22;9563;49.240;9.088;2023-01-05T12:19:09;11.10;99.90
18868;DHT22;9563;49.240;9.088;2023-01-05T12:21:45;11.10;99.90
18868;DHT22;9563;49.240;9.088;2023-01-05T12:24:40;11.10;99.90
18868;DHT22;9563;49.240;9.088;2023-01-05T12:27:25;11.20;99.90
18868;DHT22;9563;49.240;9.088;2023-01-05T12:30:18;11.20;99.90
18868;DHT22;9563;49.240;9.088;2023-01-05T12:33:00;11.30;99.90
18868;DHT22;9563;49.240;9.088;2023-01-05T12:35:44;11.20;99.90
18868;DHT22;9563;49.240;9.088;2023-01-05T12:38:39;11.20;99.90
18868;DHT22;9563;49.240;9.088;2023-01-05T12:44:42;11.40;99.90
18868;DHT22;9563;49.240;9.088;2023-01-05T12:50:01;11.50;99.90
18868;DHT22;9563;49.240;9.088;2023-01-05T12:52:34;11.70;99.90
18868;DHT22;9563;49.240;9.088;2023-01-05T12:55:10;11.70;99.90
18868;DHT22;9563;49.240;9.088;2023-01-05T12:57:42;11.70;99.90
18868;DHT22;9563;49.240;9.088;2023-01-05T13:00:15;11.60;99.90
18868;DHT22;9563;49.240;9.088;2023-01-05T13:02:50;11.60;99.90
18868;DHT22;9563;49.240;9.088;2023-01-05T13:05:22;11.50;99.90
18868;DHT22;9563;49.240;9.088;2023-01-05T13:07:53;11.50;99.90
18868;DHT22;9563;49.240;9.088;2023-01-05T13:10:27;11.40;99.90
18868;DHT22;9563;49.240;9.088;2023-01-05T13:13:00;11.40;99.90
18868;DHT22;9563;49.240;9.088;2023-01-05T13:15:31;11.30;99.90
18868;DHT22;9563;49.240;9.088;2023-01-05T13:18:00;11.30;99.90
18868;DHT22;9563;49.240;9.088;2023-01-05T13:20:37;11.30;99.90
18868;DHT22;9563;49.240;9.088;2023-01-05T13:23:11;11.20;99.90
18868;DHT22;9563;49.240;9.088;2023-01-05T13:25:49;11.30;99.90
18868;DHT22;9563;49.240;9.088;2023-01-05T13:28:19;11.30;99.90
18868;DHT22;9563;49.240;9.088;2023-01-05T13:33:45;11.30;99.90
18868;DHT22;9563;49.240;9.088;2023-01-05T13:36:27;11.20;99.90
18868;DHT22;9563;49.240;9.088;2023-01-05T13:48:07;11.10;99.90
18868;DHT22;9563;49.240;9.088;2023-01-05T13:50:50;11.00;99.90
18868;DHT22;9563;49.240;9.088;2023-01-05T13:53:21;10.80;99.90
18868;DHT22;9563;49.240;9.088;2023-01-05T13:55:51;10.80;99.90
18868;DHT22;9563;49.240;9.088;2023-01-05T13:58:36;10.70;99.90
18868;DHT22;9563;49.240;9.088;2023-01-05T14:01:06;10.70;99.90
18868;DHT22;9563;49.240;9.088;2023-01-05T14:03:37;10.60;99.90
18868;DHT22;9563;49.240;9.088;2023-01-05T14:06:14;10.60;99.90
18868;DHT22;9563;49.240;9.088;2023-01-05T14:08:48;10.60;99.90
18868;DHT22;9563;49.240;9.088;2023-01-05T14:11:18;10.70;99.90
18868;DHT22;9563;49.240;9.088;2023-01-05T14:13:47;10.70;99.90
18868;DHT22;9563;49.240;9.088;2023-01-05T14:19:51;10.60;99.90
18868;DHT22;9563;49.240;9.088;2023-01-05T14:22:25;10.60;99.90
18868;DHT22;9563;49.240;9.088;2023-01-05T14:25:42;10.60;99.90
18868;DHT22;9563;49.240;9.088;2023-01-05T14:31:46;10.60;99.90
18868;DHT22;9563;49.240;9.088;2023-01-05T14:34:15;10.60;99.90
18868;DHT22;9563;49.240;9.088;2023-01-05T14:36:59;10.60;99.90
18868;DHT22;9563;49.240;9.088;2023-01-05T14:39:29;10.60;99.90
18868;DHT22;9563;49.240;9.088;2023-01-05T14:42:04;10.70;99.90
18868;DHT22;9563;49.240;9.088;2023-01-05T14:44:34;10.70;99.90
18868;DHT22;9563;49.240;9.088;2023-01-05T14:47:03;10.70;99.90
18868;DHT22;9563;49.240;9.088;2023-01-05T14:49:34;10.70;99.90
18868;DHT22;9563;49.240;9.088;2023-01-05T14:52:05;10.70;99.90
18868;DHT22;9563;49.240;9.088;2023-01-05T14:57:40;10.70;99.90
18868;DHT22;9563;49.240;9.088;2023-01-05T15:00:15;10.80;99.90
18868;DHT22;9563;49.240;9.088;2023-01-05T15:02:57;10.80;99.90
18868;DHT22;9563;49.240;9.088;2023-01-05T15:05:26;10.70;99.90
18868;DHT22;9563;49.240;9.088;2023-01-05T15:08:05;10.70;99.90
18868;DHT22;9563;49.240;9.088;2023-01-05T15:10:50;10.70;99.90
18868;DHT22;9563;49.240;9.088;2023-01-05T15:16:57;10.70;99.90
18868;DHT22;9563;49.240;9.088;2023-01-05T15:19:51;10.70;99.90
18868;DHT22;9563;49.240;9.088;2023-01-05T15:22:31;10.70;99.90
18868;DHT22;9563;49.240;9.088;2023-01-05T15:28:43;10.70;99.90
18868;DHT22;9563;49.240;9.088;2023-01-05T15:31:26;10.70;99.90
18868;DHT22;9563;49.240;9.088;2023-01-05T15:34:00;10.60;99.90
18868;DHT22;9563;49.240;9.088;2023-01-05T15:36:35;10.70;99.90
18868;DHT22;9563;49.240;9.088;2023-01-05T15:39:24;10.60;99.90
18868;DHT22;9563;49.240;9.088;2023-01-05T15:41:55;10.60;99.90
18868;DHT22;9563;49.240;9.088;2023-01-05T15:44:25;10.60;99.90
18868;DHT22;9563;49.240;9.088;2023-01-05T15:46:54;10.70;99.90
18868;DHT22;9563;49.240;9.088;2023-01-05T15:49:24;10.70;99.90
18868;DHT22;9563;49.240;9.088;2023-01-05T15:51:54;10.60;99.90
18868;DHT22;9563;49.240;9.088;2023-01-05T15:54:23;10.60;99.90
18868;DHT22;9563;49.240;9.088;2023-01-05T15:56:50;10.60;99.90
18868;DHT22;9563;49.240;9.088;2023-01-05T15:59:26;10.60;99.90
18868;DHT22;9563;49.240;9.088;2023-01-05T16:01:53;10.60;99.90
18868;DHT22;9563;49.240;9.088;2023-01-05T16:04:20;10.60;99.90
18868;DHT22;9563;49.240;9.088;2023-01-05T16:06:49;10.60;99.90
18868;DHT22;9563;49.240;9.088;2023-01-05T16:09:22;10.60;99.90
18868;DHT22;9563;49.240;9.088;2023-01-05T16:11:51;10.60;99.90
18868;DHT22;9563;49.240;9.088;2023-01-05T16:14:24;10.60;99.90
18868;DHT22;9563;49.240;9.088;2023-01-05T16:16:56;10.60;99.90
18868;DHT22;9563;49.240;9.088;2023-01-05T16:19:26;10.60;99.90
18868;DHT22;9563;49.240;9.088;2023-01-05T16:21:59;10.60;99.90
18868;DHT22;9563;49.240;9.088;2023-01-05T16:24:29;10.60;99.90
18868;DHT22;9563;49.240;9.088;2023-01-05T16:26:58;10.60;99.90
18868;DHT22;9563;49.240;9.088;2023-01-05T16:29:34;10.60;99.90
18868;DHT22;9563;49.240;9.088;2023-01-05T16:32:03;10.60;99.90
18868;DHT22;9563;49.240;9.088;2023-01-05T16:34:30;10.60;99.90
18868;DHT22;9563;49.240;9.088;2023-01-05T16:37:03;10.60;99.90
18868;DHT22;9563;49.240;9.088;2023-01-05T16:39:36;10.60;99.90
18868;DHT22;9563;49.240;9.088;2023-01-05T16:42:09;10.50;99.90
18868;DHT22;9563;49.240;9.088;2023-01-05T16:44:57;10.50;99.90
18868;DHT22;9563;49.240;9.088;2023-01-05T16:47:33;10.50;99.90
18868;DHT22;9563;49.240;9.088;2023-01-05T16:52:52;10.40;99.90
18868;DHT22;9563;49.240;9.088;2023-01-05T16:55:21;10.40;99.90
18868;DHT22;9563;49.240;9.088;2023-01-05T16:57:49;10.40;99.90
18868;DHT22;9563;49.240;9.088;2023-01-05T17:00:36;10.40;99.90
18868;DHT22;9563;49.240;9.088;2023-01-05T17:03:25;10.30;99.90
18868;DHT22;9563;49.240;9.088;2023-01-05T17:05:55;10.30;99.90